Dodge City, KS

04:32 AM CDT am 22. Oktober 2014 (GMT -0500)
Dodge City Regional | Change Station
CLOSE
Current Station
Flughafen
Location: Dodge City,
Höhe: 2592 ft
Wetterstationen in der Umgebung

Höhe 2592 ft 37.76 °N, 99.97 °W | Updated 40 minutes ago

Heiter
Heiter
57 °F
gefühlte 57 °F
N
9
Wind Wechselnd Wind aus Süd

Heute
Max. -- | schwach -- °F
--% Regenrisiko
Gestern
Max. -- | schwach -- °F
Precip. -- inch
7:55 AM 6:53 PM
Letztes Viertel, 2% visible
Druck 29.96 inch
Sichtweite 10.0 Meilen
Wolken Heiter
Taupunkt 49 °F
Feuchtigkeit 74%
Regen 0.00 inch
Schneehöhe Nicht verfügbar..
UV 0 von 12
Pollen 3.00 von 12
Luftqualität Nicht verfügbar..
Flu Activity No Activity
METAR KDDC 220852Z AUTO 18008KT 10SM CLR 14/09 A3003 RMK AO2 SLP146 T01390094 50002

More Conditions Fewer Conditions

Druck 29.96 inch
Sichtweite 10.0 Meilen
Wolken Heiter
Taupunkt 49 °F
Feuchtigkeit 74%
Regen 0.00 inch
Schneehöhe Nicht verfügbar..
UV 0 von 12
Pollen 3.00 von 12
Luftqualität Nicht verfügbar..
Flu Activity No Activity
METAR KDDC 220852Z AUTO 18008KT 10SM CLR 14/09 A3003 RMK AO2 SLP146 T01390094 50002

More Conditions Fewer Conditions

10-Day Weather Forecast

Almanac

Astronomie

Oct. 22, 2014 Aufgang Untergang
Genaue Zeit 07:55 CDT 18:53 CDT
Bürgerliche Dämmerung 07:28 CDT 19:19 CDT
Nautische Dämmerung 06:57 CDT 19:50 CDT
Astronomische Dämmerung 06:27 CDT 20:20 CDT
Mond 06:39 CDT 18:20 CDT
Länge des sichtbaren Lichts 11h 51m
Tageslänge
10h 57m
Tomorrow will be 2m 16s shorter.
Letztes Viertel, 2% of the Moon is Illuminated
Heute
Letztes Viertel
Okt 23
Neu
Okt 30
Erstes Viertel
Nov 6
Vollmond
Nov 14
Letztes Viertel

Heutige Rekorde

State Highs State Lows

Community

WunderPhotos

Upload Photos

1,763,900 Fotos hochgeladen!

Nearby

Schneehöhe

Station Depth Höhe
Kein Neuschnee gemeldet.

Erdbebenaktivität

Stadt Distance Mag. Time & Date
Mooreland, Oklahoma 103 Meilen 2.6 11:34 CDT
2014-10-21
Mooreland, Oklahoma 103 Meilen 2.7 11:18 CDT
2014-10-21
Cherokee, Oklahoma 128 Meilen 2.5 08:27 CDT
2014-10-21
Helena, Oklahoma 127 Meilen 3.0 10:35 CDT
2014-10-20
Minimum magnitude displayed is 2.5.

küstennahe Wassertemperaturen

Ort Temperatur
Kein Stationsbericht

Wetterstationen in der Umgebung